Chino Valley, AZ

11:58 PM MST on January 25, 2015 (GMT -0700)
Love | Change Station
CLOSE
Current Station
Airport
Location: Prescott,
Elevation: 5043 ft
Nearby Weather Stations

Elev 5043 ft 34.65 °N, 112.42 °W | Updated 5 minutes ago

Partly Cloudy
Partly Cloudy
41 °F
Feels Like 41 °F
N
0
Wind Variable Wind from North

Today
High -- | Low -- °F
--% Chance of Precip.
Yesterday
High -- | Low -- °F
Precip. -- in
7:32 AM 5:51 PM
Waxing Crescent, 40% visible
Pressure 30.16 in
Visibility 10.0 miles
Clouds Clear
Dew Point 21 °F
Humidity 45%
Rainfall 0.00 in
Snow Depth Not available.
UV 0 out of 12
Pollen 3.70 out of 12
Air Quality Not available.
Flu Activity Not available.
METAR KPRC 260653Z AUTO 00000KT 10SM CLR 05/M06 A3027 RMK AO2 SLP212 T00501061 402001039 TSNO

More Conditions Fewer Conditions

Pressure 30.16 in
Visibility 10.0 miles
Clouds Clear
Dew Point 21 °F
Humidity 45%
Rainfall 0.00 in
Snow Depth Not available.
UV 0 out of 12
Pollen 3.70 out of 12
Air Quality Not available.
Flu Activity Not available.
METAR KPRC 260653Z AUTO 00000KT 10SM CLR 05/M06 A3027 RMK AO2 SLP212 T00501061 402001039 TSNO

More Conditions Fewer Conditions

10-Day Weather Forecast

Almanac

Astronomy

Jan. 25, 2015 Rise Set
Actual Time
Civil Twilight
Nautical Twilight
Astronomical Twilight
Moon
Length of Visible Light
Length of Day
Tomorrow will be .
, % of the Moon is Illuminated

Today's Extremes

State Highs State Lows

Community

WunderPhotos

Upload Photos

1,790,157 photos uploaded!

WunderBlogs® & News

Nearby

Air Quality

  Air Quality AQ Index Pollutant
Not available.

Snow Depth

Station Depth Elevation

Earthquake Activity

City Distance Mag. Time & Date
Minimum magnitude displayed is 2.5.

Coastal Water Temperatures

Place Temperature

Nearby Weather Stations